Latest Weather Observations for Witchcliffe

IDW60801

Issued at 3:03 pm WST Friday 6 March 2015 (issued every 30 minutes, with the page automatically refreshed every 10 minutes)

About weather observations | Map of weather stations | Latest weather observations for WA | Other Formats
Station Details ID: 009746 Name: WITCHCLIFFE Lat: -34.03 Lon: 115.10 Height: 80.0 m
Data from the previous 72 hours. | See also: Recent months at Witchcliffe
Date/Time
WST
Temp
°C
App
Temp
°C
Dew
Point
Rel
Hum
%
Delta-T
°C
Wind Press
QNH
hPa
Press
MSL
hPa
Rain
since 9 am
mm
Dir
 
Spd
km/h
Gust
km/h
Spd
kts
Gust
kts
06/03:00pm 26.4 22.8 13.2 44 7.7 SE 24 33 13 18 1020.2 1019.9 0.0
06/02:30pm 27.0 23.8 13.0 42 8.2 SSE 22 32 12 17 1020.4 1020.1 0.0
06/02:00pm 27.0 24.3 13.0 42 8.2 SSE 19 28 10 15 1020.6 1020.3 0.0
06/01:30pm 26.6 23.9 13.0 43 8.0 SSE 19 30 10 16 1020.9 1020.6 0.0
06/01:00pm 26.2 23.8 13.7 46 7.4 SSE 19 32 10 17 1021.3 1021.0 0.0
06/12:30pm 26.1 24.0 14.6 49 6.9 SSE 19 28 10 15 1021.7 1021.4 0.0
06/12:00pm 26.7 25.2 13.1 43 8.0 SE 13 24 7 13 1021.8 1021.6 0.0
06/11:30am 25.7 24.2 13.2 46 7.3 SSE 13 19 7 10 1022.4 1022.2 0.0
06/11:00am 24.9 24.2 13.1 48 6.9 ESE 9 17 5 9 1022.5 1022.3 0.0
06/10:30am 24.0 23.9 13.8 53 6.0 ESE 7 15 4 8 1022.9 1022.7 0.0
06/10:00am 22.2 22.1 13.3 57 5.1 E 6 13 3 7 1022.9 1022.7 0.0
06/09:30am 20.6 19.9 13.1 62 4.3 E 9 17 5 9 1022.9 1022.7 0.0
06/09:00am 19.8 18.8 13.3 66 3.7 E 11 17 6 9 1022.8 1022.6 0.0
06/08:30am 18.7 17.8 13.6 72 2.9 ESE 11 17 6 9 1022.9 1022.7 0.0
06/08:00am 16.7 15.3 13.4 81 1.9 ESE 13 17 7 9 1023.1 1022.9 0.0
06/07:30am 15.5 14.5 14.7 95 0.5 SE 13 19 7 10 1023.1 1022.9 0.0
06/07:00am 14.4 14.0 14.2 99 0.1 ESE 9 13 5 7 1023.0 1022.8 0.0
06/06:30am 13.9 13.4 13.7 99 0.1 SE 9 13 5 7 1022.6 1022.4 0.0
06/06:00am 14.1 14.0 13.9 99 0.1 SE 7 9 4 5 1022.4 1022.2 0.0
06/05:30am 14.5 14.2 14.3 99 0.1 SE 9 13 5 7 1022.3 1022.1 0.0
06/05:00am 14.8 15.0 14.6 99 0.1 SE 7 11 4 6 1022.2 1022.0 0.0
06/04:30am 15.1 16.3 14.9 99 0.1 SE 2 7 1 4 1022.2 1022.0 0.0
06/04:00am 15.5 15.9 15.3 99 0.1 SE 7 17 4 9 1022.1 1021.9 0.0
06/03:30am 15.8 15.9 15.6 99 0.1 SE 9 13 5 7 1022.3 1022.1 0.0
06/03:00am 16.2 16.5 16.0 99 0.1 SE 9 13 5 7 1022.2 1022.0 0.0
06/02:30am 16.5 16.9 16.2 98 0.2 SE 9 13 5 7 1022.2 1022.0 0.0
06/02:00am 16.9 17.0 16.4 97 0.3 SE 11 15 6 8 1022.2 1022.0 0.0
06/01:30am 17.2 17.7 16.6 96 0.4 SE 9 13 5 7 1022.6 1022.4 0.0
06/01:00am 17.5 17.7 16.7 95 0.5 SE 11 15 6 8 1022.8 1022.6 0.0
06/12:30am 17.6 17.7 16.5 93 0.7 SE 11 17 6 9 1023.1 1022.9 0.0
06/12:00am 17.9 17.8 16.9 94 0.6 SSE 13 19 7 10 1023.0 1022.8 0.0
 
Date/Time
WST
Temp
°C
App
Temp
°C
Dew
Point
Rel
Hum
%
Delta-T
°C
Wind Press
QNH
hPa
Press
MSL
hPa
Rain
since 9 am
mm
Dir
 
Spd
km/h
Gust
km/h
Spd
kts
Gust
kts
05/11:30pm 18.0 17.8 16.7 92 0.8 SSE 13 17 7 9 1023.2 1023.0 0.0
05/11:00pm 18.3 18.5 16.8 91 0.9 SSE 11 19 6 10 1023.3 1023.1 0.0
05/10:30pm 18.5 18.3 16.7 89 1.1 SSE 13 19 7 10 1023.5 1023.3 0.0
05/10:00pm 18.7 18.3 16.3 86 1.4 SSE 13 19 7 10 1023.7 1023.5 0.0
05/09:30pm 18.9 17.7 16.1 84 1.7 SSE 17 24 9 13 1023.8 1023.6 0.0
05/09:00pm 19.2 18.4 16.1 82 1.8 SSE 15 20 8 11 1023.8 1023.6 0.0
05/08:30pm 19.2 17.9 15.7 80 2.1 SSE 17 22 9 12 1023.6 1023.4 0.0
05/08:00pm 19.6 18.2 15.5 77 2.4 SSE 17 22 9 12 1023.5 1023.3 0.0
05/07:30pm 20.0 18.5 15.2 74 2.8 SSE 17 26 9 14 1023.2 1023.0 0.0
05/07:00pm 20.6 19.0 14.9 70 3.3 SSE 17 26 9 14 1023.0 1022.8 0.0
05/06:30pm 21.5 18.4 14.6 65 4.1 SSE 24 33 13 18 1022.9 1022.7 0.0
05/06:00pm 22.4 19.2 14.3 60 4.7 SSE 24 35 13 19 1022.8 1022.6 0.0
05/05:30pm 23.5 20.3 14.2 56 5.5 SSE 24 33 13 18 1022.6 1022.4 0.0
05/05:00pm 24.0 20.5 14.4 55 5.7 S 26 37 14 20 1022.6 1022.4 0.0
05/04:30pm 25.3 22.2 14.4 50 6.5 SSE 24 33 13 18 1022.5 1022.3 0.0
05/04:00pm 26.3 22.7 14.1 47 7.2 SSE 26 37 14 20 1022.3 1022.1 0.0
05/03:30pm 27.1 23.2 13.4 42 8.1 SSE 26 33 14 18 1022.4 1022.2 0.0
05/03:00pm 28.1 24.9 13.2 39 8.8 SSE 22 30 12 16 1022.6 1022.4 0.0
05/02:30pm 28.3 26.0 13.0 39 9.0 SSW 17 22 9 12 1022.9 1022.7 0.0
05/02:00pm 28.5 25.9 13.2 39 9.0 WSW 19 28 10 15 1023.2 1023.0 0.0
05/01:30pm 29.0 27.3 11.1 33 10.3 SE 11 30 6 16 1023.6 1023.4 0.0
05/01:00pm 27.9 26.9 11.0 35 9.6 SW 7 13 4 7 1023.9 1023.7 0.0
05/12:30pm 27.9 27.7 11.9 37 9.3 NW 4 13 2 7 1024.2 1024.0 0.0
05/12:00pm 27.9 26.5 12.3 38 9.1 SE 11 17 6 9 1024.8 1024.6 0.0
05/11:30am 26.4 25.2 11.7 40 8.4 ENE 9 19 5 10 1025.0 1024.8 0.0
05/11:00am 25.7 23.4 11.8 42 7.9 ENE 15 24 8 13 1025.4 1025.2 0.0
05/10:30am 24.5 22.7 12.1 46 7.1 ENE 13 19 7 10 1025.6 1025.4 0.0
05/10:00am 23.4 21.3 12.4 50 6.3 ENE 15 19 8 10 1025.7 1025.5 0.0
05/09:30am 22.2 19.7 12.2 53 5.7 NE 17 22 9 12 1025.6 1025.4 0.0
05/09:00am 20.6 18.5 12.3 59 4.7 ENE 15 22 8 12 1025.7 1025.5 0.0
05/08:30am 18.5 17.0 12.0 66 3.6 E 11 17 6 9 1025.7 1025.5 0.0
05/08:00am 16.4 15.1 11.3 72 2.7 E 9 17 5 9 1025.7 1025.5 0.0
05/07:30am 14.9 13.5 10.9 77 2.1 ESE 9 13 5 7 1025.7 1025.5 0.0
05/07:00am 13.6 12.4 10.4 81 1.7 ESE 7 13 4 7 1025.6 1025.4 0.0
05/06:30am 12.7 10.6 9.9 83 1.4 SE 11 15 6 8 1025.3 1025.1 0.0
05/06:00am 12.6 10.8 9.6 82 1.5 SE 9 13 5 7 1025.0 1024.8 0.0
05/05:30am 12.9 10.8 9.9 82 1.5 SE 11 15 6 8 1024.7 1024.5 0.0
05/05:00am 12.8 11.0 9.4 80 1.7 SE 9 13 5 7 1024.6 1024.4 0.0
05/04:30am 13.4 11.3 9.8 79 1.9 SE 11 15 6 8 1024.3 1024.1 0.0
05/04:00am 13.5 11.4 9.9 79 1.9 SE 11 17 6 9 1024.2 1024.0 0.0
05/03:30am 13.8 11.8 10.0 78 2.0 ESE 11 17 6 9 1024.3 1024.1 0.0
05/03:00am 14.3 12.3 10.1 76 2.2 ESE 11 17 6 9 1024.3 1024.1 0.0
05/02:30am 14.7 13.1 10.3 75 2.3 ESE 9 13 5 7 1024.1 1023.9 0.0
05/02:00am 15.4 13.9 10.6 73 2.5 SE 9 17 5 9 1024.3 1024.1 0.0
05/01:30am 15.7 14.2 10.7 72 2.7 SE 9 11 5 6 1024.2 1024.0 0.0
05/01:00am 15.9 14.5 10.9 72 2.7 SE 9 13 5 7 1024.2 1024.0 0.0
05/12:30am 16.5 14.8 11.2 71 2.9 SE 11 17 6 9 1024.3 1024.1 0.0
05/12:00am 16.9 14.9 11.6 71 2.9 SE 13 20 7 11 1024.3 1024.1 0.0
 
Date/Time
WST
Temp
°C
App
Temp
°C
Dew
Point
Rel
Hum
%
Delta-T
°C
Wind Press
QNH
hPa
Press
MSL
hPa
Rain
since 9 am
mm
Dir
 
Spd
km/h
Gust
km/h
Spd
kts
Gust
kts
04/11:30pm 17.1 14.8 11.8 71 2.9 SSE 15 20 8 11 1024.4 1024.2 0.0
04/11:00pm 17.3 15.0 11.8 70 3.0 SSE 15 19 8 10 1024.2 1024.0 0.0
04/10:30pm 17.7 15.2 12.2 70 3.0 SSE 17 20 9 11 1024.3 1024.1 0.0
04/10:00pm 17.8 15.4 12.5 71 2.9 SSE 17 24 9 13 1024.6 1024.4 0.0
04/09:30pm 18.0 15.4 13.1 73 2.8 SSE 19 24 10 13 1024.5 1024.3 0.0
04/09:00pm 18.1 15.9 13.4 74 2.7 SE 17 24 9 13 1024.4 1024.2 0.0
04/08:30pm 18.2 15.5 13.5 74 2.7 SSE 20 32 11 17 1024.1 1023.9 0.0
04/08:00pm 18.3 15.2 13.4 73 2.8 SSE 22 30 12 16 1023.8 1023.6 0.0
04/07:30pm 18.5 14.9 13.1 71 3.1 SE 24 35 13 19 1023.6 1023.4 0.0
04/07:00pm 18.8 15.2 13.2 70 3.2 SSE 24 37 13 20 1023.3 1023.1 0.0
04/06:30pm 19.4 15.8 12.9 66 3.7 SE 24 33 13 18 1023.1 1022.9 0.0
04/06:00pm 20.2 15.3 12.7 62 4.2 SSE 30 39 16 21 1023.0 1022.8 0.0
04/05:30pm 21.1 16.7 12.8 59 4.7 SSE 28 39 15 21 1022.8 1022.6 0.0
04/05:00pm 21.8 17.0 12.9 57 5.1 SSE 30 43 16 23 1022.7 1022.5 0.0
04/04:30pm 22.2 16.8 12.7 55 5.4 SSE 33 43 18 23 1022.5 1022.3 0.0
04/04:00pm 22.6 17.7 12.5 53 5.7 SSE 30 39 16 21 1022.4 1022.2 0.0
04/03:30pm 23.4 19.3 12.7 51 6.2 SSE 26 37 14 20 1022.5 1022.3 0.0
04/03:00pm 23.5 18.9 12.2 49 6.4 SSE 28 37 15 20 1022.6 1022.4 0.0
04/02:30pm 24.8 21.1 12.7 47 7.0 S 24 35 13 19 1022.6 1022.4 0.0
04/02:00pm 24.9 20.3 12.2 45 7.3 SSE 28 35 15 19 1022.7 1022.5 0.0
04/01:30pm 26.5 23.0 12.2 41 8.3 SSE 22 33 12 18 1022.6 1022.4 0.0
04/01:00pm 26.2 22.8 10.4 37 8.8 SE 19 28 10 15 1022.8 1022.6 0.0
04/12:30pm 25.1 22.0 10.2 39 8.3 SE 17 30 9 16 1023.2 1023.0 0.0
04/12:00pm 24.4 20.8 10.7 42 7.6 SE 20 28 11 15 1023.6 1023.4 0.0
04/11:30am 23.2 19.7 10.3 44 7.1 ESE 19 28 10 15 1024.1 1023.9 0.0
04/11:00am 22.5 18.9 10.6 47 6.5 SE 20 32 11 17 1024.5 1024.3 0.0
04/10:30am 20.7 17.4 10.8 53 5.4 ESE 19 28 10 15 1025.1 1024.9 0.0
04/10:00am 19.9 16.3 10.6 55 5.0 ESE 20 39 11 21 1025.3 1025.1 0.0
04/09:30am 19.3 15.9 11.3 60 4.4 ESE 20 35 11 19 1025.5 1025.3 0.0
04/09:00am 18.4 14.7 11.5 64 3.8 SE 22 37 12 20 1025.3 1025.1 0.0
04/08:30am 17.4 13.9 11.0 66 3.5 ESE 20 35 11 19 1025.2 1025.0 0.0
04/08:00am 16.1 13.1 10.6 70 2.9 ESE 17 28 9 15 1025.3 1025.1 0.0
04/07:30am 14.9 12.6 10.5 75 2.3 SE 13 22 7 12 1025.2 1025.0 0.0
04/07:00am 13.7 10.9 10.1 79 1.9 SE 15 20 8 11 1024.9 1024.7 0.0
04/06:30am 12.8 10.7 9.8 82 1.5 SE 11 19 6 10 1024.5 1024.3 0.0
04/06:00am 12.6 10.1 9.8 83 1.4 SE 13 19 7 10 1024.3 1024.1 0.0
04/05:30am 12.6 9.4 9.8 83 1.4 SE 17 24 9 13 1024.0 1023.8 0.0
04/05:00am 12.7 9.8 9.7 82 1.5 SE 15 22 8 12 1023.8 1023.6 0.0
04/04:30am 12.9 10.4 9.7 81 1.6 SE 13 20 7 11 1023.6 1023.4 0.0
04/04:00am 13.0 10.5 9.6 80 1.7 SE 13 24 7 13 1023.4 1023.2 0.0
04/03:30am 13.3 10.8 9.7 79 1.9 SE 13 22 7 12 1023.2 1023.0 0.0
04/03:00am 13.5 10.7 9.9 79 1.9 SE 15 22 8 12 1022.9 1022.7 0.0
04/02:30am 13.9 10.7 9.9 77 2.1 SE 17 22 9 12 1022.9 1022.7 0.0
04/02:00am 14.3 11.5 9.9 75 2.3 SE 15 22 8 12 1022.9 1022.7 0.0
04/01:30am 14.6 10.9 10.0 74 2.4 SE 20 28 11 15 1023.0 1022.8 0.0
04/01:00am 14.6 10.9 10.2 75 2.3 SE 20 28 11 15 1022.9 1022.7 0.0
04/12:30am 14.9 11.4 10.1 73 2.5 SE 19 28 10 15 1023.1 1022.9 0.0
04/12:00am 15.1 11.9 10.1 72 2.6 SE 17 24 9 13 1023.2 1023.0 0.0
 
Date/Time
WST
Temp
°C
App
Temp
°C
Dew
Point
Rel
Hum
%
Delta-T
°C
Wind Press
QNH
hPa
Press
MSL
hPa
Rain
since 9 am
mm
Dir
 
Spd
km/h
Gust
km/h
Spd
kts
Gust
kts
03/11:30pm 15.6 12.2 10.4 71 2.8 SE 19 28 10 15 1023.5 1023.3 0.0
03/11:00pm 16.0 11.6 10.5 70 2.9 SE 24 35 13 19 1023.5 1023.3 0.0
03/10:30pm 16.3 12.1 11.0 71 2.8 SE 24 39 13 21 1023.7 1023.5 0.0
03/10:00pm 16.5 12.8 11.6 73 2.7 SE 22 37 12 20 1023.7 1023.5 0.0
03/09:30pm 16.6 13.0 11.7 73 2.7 SE 22 35 12 19 1023.5 1023.3 0.0
03/09:00pm 16.8 13.2 11.9 73 2.7 SE 22 33 12 18 1023.4 1023.2 0.0
03/08:30pm 16.8 12.8 11.7 72 2.8 SE 24 39 13 21 1023.1 1022.9 0.0
03/08:00pm 16.9 13.3 11.8 72 2.8 SE 22 32 12 17 1022.9 1022.7 0.0
03/07:30pm 17.0 13.0 11.7 71 2.9 SSE 24 35 13 19 1022.6 1022.4 0.0
03/07:00pm 17.3 13.6 11.6 69 3.1 SSE 22 33 12 18 1022.3 1022.1 0.0
03/06:30pm 18.0 13.6 11.6 66 3.5 SSE 26 39 14 21 1022.2 1022.0 0.0
03/06:00pm 18.7 13.9 11.8 64 3.8 SE 28 43 15 23 1021.9 1021.7 0.0
03/05:30pm 19.2 13.6 11.5 61 4.2 SSE 32 46 17 25 1021.8 1021.6 0.0
03/05:20pm 19.6 14.7 11.4 59 4.5 SSE 28 48 15 26 1021.7 1021.4 0.0
03/05:00pm 20.1 15.3 11.6 58 4.7 SSE 28 43 15 23 1021.7 1021.4 0.0
03/04:30pm 20.9 15.7 11.5 55 5.2 SSE 30 43 16 23 1021.6 1021.3 0.0
03/04:11pm 21.1 15.8 11.4 54 5.4 SSE 30 48 16 26 1021.5 1021.2 0.0
03/04:00pm 21.3 15.7 11.6 54 5.4 SSE 32 43 17 23 1021.5 1021.2 0.0
03/03:30pm 21.2 15.5 11.2 53 5.5 SSE 32 43 17 23 1021.6 1021.3 0.0

Other Formats:

Comma delimited format used in spreadsheet applications
http://www.bom.gov.au/fwo/IDW60801/IDW60801.95641.axf

JavaScript Object Notation format (JSON) in row-major order
http://www.bom.gov.au/fwo/IDW60801/IDW60801.95641.json